Main page
METAR-TAF:

METAR-TAF

Airports :

Adelaide, Australia

Adelaide Airport

latitude: 34-56S, longitude: 138-31E, elevation: 6 m

Current weather observation

The report was made 24 minutes ago, at 11:30 UTC
Wind 9 kt from the East/Northeast
Temperature 28°C
Humidity 28%
Pressure 1013 hPa
Visibility 10 km or more
no clouds below 1500 m and no cumulonimbus

METAR: YPAD 201130Z 07009KT CAVOK 28/08 Q1013 FM1130 MOD TURB BLW 5000FT

Time: 22:24 (11:54 UTC)

Forecast

The report was made 33 minutes ago, at 11:21 UTC
Forecast valid from 20 at 12 UTC to 21 at 18 UTC
Wind 14 kt from the East/Northeast
Visibility 10 km or more
no clouds below 1500 m and no cumulonimbus
From 20 at 2200 UTC
Wind 18 kt from the North/Northeast
Visibility 10 km or more
no clouds below 1500 m and no cumulonimbus
From 21 at 0200 UTC
Wind 14 kt from the Northeast
Visibility 10 km or more
no clouds below 1500 m and no cumulonimbus

TAF: YPAD 201121Z 2012/2118 06014KT CAVOK FM202200 02018KT CAVOK FM210200 05014KT CAVOK

Weather observations and forecasts of more than 4000 airports (METAR and TAF reports).

The available stations are represented by yellow and red dots on the map.

Hover mouse over dot to see the name of the station.

Then click to see weather observations and forecasts.

To change the map : click on the green buttons with a black cross to zoom in, on the green button with a dash to zoom out, or on the green arrows for adjacent maps.


METAR-TAF: